Time;durP1;ratioP1;P1;durP2;ratioP2;P2;SDS_P1;SDS_P2;PMS_P1;PMS_P2;Temp;Humidity;BMP_temperature;BMP_pressure;BME280_temperature;BME280_humidity;BME280_pressure;Samples;Min_cycle;Max_cycle;Signal;HPM_P1;HPM_P2
2022/10/13 00:02:16;;;;;;;2.03;1.17;;;20.70;53.80;;;;;;6266367;28;20090;-68
2022/10/13 00:05:17;;;;;;;1.38;1.20;;;20.70;53.70;;;;;;6264168;28;20593;-68
2022/10/13 00:08:21;;;;;;;1.60;0.90;;;20.70;53.80;;;;;;6265695;28;20067;-68
2022/10/13 00:11:26;;;;;;;1.23;1.02;;;20.70;53.80;;;;;;6256219;28;20221;-68
2022/10/13 00:14:27;;;;;;;1.38;1.05;;;20.70;53.80;;;;;;6258707;28;20056;-68
2022/10/13 00:17:28;;;;;;;1.33;1.02;;;20.70;53.70;;;;;;6266197;28;20372;-68
2022/10/13 00:20:29;;;;;;;2.00;1.02;;;20.70;53.70;;;;;;6265731;28;20039;-68
2022/10/13 00:23:32;;;;;;;2.65;1.30;;;20.70;53.70;;;;;;6266143;28;20029;-68
2022/10/13 00:26:32;;;;;;;1.17;0.82;;;20.70;53.80;;;;;;6265640;28;20025;-68
2022/10/13 00:29:33;;;;;;;1.95;1.30;;;20.70;54.40;;;;;;6266107;28;20025;-68
2022/10/13 00:32:34;;;;;;;1.27;0.95;;;20.70;53.70;;;;;;6265871;28;20032;-68
2022/10/13 00:35:40;;;;;;;1.40;1.08;;;20.70;53.70;;;;;;6264318;28;20036;-68
2022/10/13 00:38:41;;;;;;;1.88;1.20;;;20.70;53.70;;;;;;6265529;28;20028;-68
2022/10/13 00:41:42;;;;;;;1.83;1.00;;;20.70;53.70;;;;;;6264010;28;20040;-68
2022/10/13 00:45:10;;;;;;;1.92;1.17;;;20.70;53.70;;;;;;6263517;28;20095;-68
2022/10/13 00:48:12;;;;;;;2.72;1.20;;;20.70;53.70;;;;;;6245229;28;20125;-68
2022/10/13 00:51:16;;;;;;;1.48;1.00;;;20.70;53.70;;;;;;6258792;28;20017;-68
2022/10/13 00:54:20;;;;;;;1.25;1.00;;;20.70;53.70;;;;;;6268411;28;20381;-68
2022/10/13 00:57:22;;;;;;;1.83;1.10;;;20.70;53.70;;;;;;6269879;28;20025;-68
2022/10/13 01:00:23;;;;;;;1.35;1.00;;;20.60;53.50;;;;;;6270291;28;20033;-68
2022/10/13 01:03:25;;;;;;;1.13;0.80;;;20.70;53.60;;;;;;6270049;28;20458;-68
2022/10/13 01:06:26;;;;;;;1.30;0.82;;;20.60;53.70;;;;;;6260043;28;20509;-68
2022/10/13 01:09:34;;;;;;;1.95;1.20;;;20.70;53.70;;;;;;6245234;28;20445;-68
2022/10/13 01:13:02;;;;;;;1.63;1.20;;;20.70;53.70;;;;;;6244979;28;20033;-68
2022/10/13 01:16:13;;;;;;;1.40;1.00;;;20.70;53.70;;;;;;6252940;28;20616;-68
2022/10/13 01:19:49;;;;;;;1.95;1.15;;;20.70;53.60;;;;;;6269818;28;20017;-68
2022/10/13 01:23:39;;;;;;;1.52;1.00;;;20.70;53.70;;;;;;6269655;28;20021;-68
2022/10/13 01:27:00;;;;;;;1.27;1.00;;;20.70;53.60;;;;;;6260075;28;20470;-68
2022/10/13 01:30:05;;;;;;;1.20;0.90;;;20.70;53.70;;;;;;6269278;28;20490;-68
2022/10/13 01:33:12;;;;;;;2.10;1.02;;;20.70;53.60;;;;;;6267901;28;20056;-69
2022/10/13 01:36:25;;;;;;;1.98;1.23;;;20.70;53.60;;;;;;6269026;28;20421;-68
2022/10/13 01:39:51;;;;;;;1.45;0.95;;;20.70;53.70;;;;;;6267953;28;20131;-68
2022/10/13 01:43:02;;;;;;;;;;;20.70;53.60;;;;;;6269300;28;20021;-68
2022/10/13 01:46:08;;;;;;;1.85;1.13;;;20.70;53.60;;;;;;6268765;28;19913;-68
2022/10/13 01:49:11;;;;;;;2.00;1.13;;;20.70;53.60;;;;;;6268609;28;20048;-68
2022/10/13 01:52:16;;;;;;;2.38;1.30;;;20.70;53.60;;;;;;6268809;28;20028;-68
2022/10/13 01:55:17;;;;;;;2.55;1.15;;;20.60;53.50;;;;;;6268163;28;20164;-68
2022/10/13 01:58:18;;;;;;;1.23;0.98;;;20.70;53.60;;;;;;6268628;28;20025;-68
2022/10/13 02:01:19;;;;;;;1.30;0.80;;;20.70;53.60;;;;;;6267209;28;20123;-71
2022/10/13 02:04:41;;;;;;;1.83;1.20;;;20.70;53.60;;;;;;6266217;28;20558;-71
2022/10/13 02:07:54;;;;;;;1.85;1.17;;;20.70;53.50;;;;;;6267925;28;20021;-72
2022/10/13 02:11:18;;;;;;;1.52;1.05;;;20.70;53.50;;;;;;6268103;28;20048;-71
2022/10/13 02:14:28;;;;;;;1.40;0.82;;;20.70;53.60;;;;;;6243180;28;20124;-71
2022/10/13 02:17:30;;;;;;;2.10;0.80;;;20.60;53.50;;;;;;6254692;28;20021;-71
2022/10/13 02:20:31;;;;;;;1.13;0.93;;;20.60;53.40;;;;;;6266465;28;20468;-71
2022/10/13 02:23:32;;;;;;;1.00;0.90;;;20.70;53.50;;;;;;6266392;28;20033;-71
2022/10/13 02:26:34;;;;;;;2.35;0.80;;;20.70;53.50;;;;;;6267287;28;20031;-71
2022/10/13 02:29:51;;;;;;;1.95;1.05;;;20.70;53.50;;;;;;6267385;28;20041;-71
2022/10/13 02:32:52;;;;;;;1.67;0.93;;;20.60;53.40;;;;;;6267746;28;20021;-71
2022/10/13 02:35:53;;;;;;;1.10;0.85;;;20.60;53.50;;;;;;6265922;28;20506;-71
2022/10/13 02:38:53;;;;;;;1.67;1.05;;;20.70;53.60;;;;;;6267310;28;20631;-71
2022/10/13 02:41:54;;;;;;;1.60;1.13;;;20.70;53.50;;;;;;6266838;28;20035;-71
2022/10/13 02:44:55;;;;;;;2.20;1.00;;;20.70;53.50;;;;;;6262875;28;20379;-70
2022/10/13 02:47:56;;;;;;;1.88;1.10;;;20.70;53.50;;;;;;6241111;28;20028;-71
2022/10/13 02:50:57;;;;;;;0.85;0.63;;;20.70;53.50;;;;;;6242408;28;20045;-71
2022/10/13 02:53:58;;;;;;;1.10;0.90;;;20.70;53.50;;;;;;6260257;28;20036;-71
2022/10/13 02:56:58;;;;;;;1.85;0.90;;;20.60;53.40;;;;;;6266630;28;20600;-71
2022/10/13 02:59:59;;;;;;;1.90;0.95;;;20.60;53.40;;;;;;6266638;28;20367;-70
2022/10/13 03:03:00;;;;;;;1.60;0.85;;;20.70;53.40;;;;;;6266554;28;20418;-71
2022/10/13 03:06:01;;;;;;;1.38;0.80;;;20.70;53.50;;;;;;6266514;28;20029;-71
2022/10/13 03:09:03;;;;;;;1.45;0.80;;;20.60;53.40;;;;;;6256385;28;20466;-71
2022/10/13 03:12:03;;;;;;;2.47;1.08;;;20.60;53.40;;;;;;6241757;28;20494;-71
2022/10/13 03:15:05;;;;;;;1.23;0.70;;;20.70;53.40;;;;;;6241417;28;20029;-71
2022/10/13 03:18:05;;;;;;;1.05;0.85;;;20.70;53.50;;;;;;6250217;28;20036;-71
2022/10/13 03:21:06;;;;;;;2.08;1.00;;;20.60;53.40;;;;;;6264865;28;20021;-71
2022/10/13 03:24:07;;;;;;;1.35;1.02;;;20.70;53.40;;;;;;6266033;28;20029;-71
2022/10/13 03:27:08;;;;;;;1.05;0.80;;;20.70;53.50;;;;;;6265962;28;20017;-71
2022/10/13 03:30:10;;;;;;;1.15;0.95;;;20.70;53.50;;;;;;6265764;28;20017;-71
2022/10/13 03:33:11;;;;;;;1.65;0.90;;;20.60;53.30;;;;;;6266631;28;20051;-71
2022/10/13 03:36:12;;;;;;;2.05;1.08;;;20.70;53.40;;;;;;6265697;28;20074;-71
2022/10/13 03:39:13;;;;;;;1.95;1.02;;;20.70;53.50;;;;;;6265901;28;20950;-71
2022/10/13 03:42:14;;;;;;;1.45;1.00;;;20.60;53.40;;;;;;6266068;28;20029;-71
2022/10/13 03:45:15;;;;;;;1.15;0.85;;;20.60;53.40;;;;;;6258308;28;20363;-71
2022/10/13 03:48:15;;;;;;;1.25;1.00;;;20.60;53.40;;;;;;6246913;28;20053;-71
2022/10/13 03:51:19;;;;;;;1.23;0.90;;;20.60;53.30;;;;;;6266203;28;20027;-71
2022/10/13 03:54:20;;;;;;;1.40;0.70;;;20.60;53.30;;;;;;6266412;28;20025;-68
2022/10/13 03:57:20;;;;;;;3.05;0.95;;;20.70;53.40;;;;;;6266322;28;20063;-68
2022/10/13 04:00:22;;;;;;;1.35;0.90;;;20.60;53.40;;;;;;6266198;28;20025;-68
2022/10/13 04:03:23;;;;;;;2.22;1.17;;;20.60;53.30;;;;;;6266335;28;20075;-68
2022/10/13 04:06:25;;;;;;;1.00;0.80;;;20.60;53.30;;;;;;6266276;28;20021;-68
2022/10/13 04:09:26;;;;;;;1.10;0.82;;;20.70;53.40;;;;;;6266418;28;20013;-68
2022/10/13 04:12:26;;;;;;;1.25;1.00;;;20.70;54.00;;;;;;6266197;28;20474;-68
2022/10/13 04:15:27;;;;;;;1.55;1.13;;;20.60;53.30;;;;;;6264344;28;20052;-68
2022/10/13 04:18:28;;;;;;;1.70;0.90;;;20.60;53.30;;;;;;6266583;28;20525;-68
2022/10/13 04:21:32;;;;;;;1.60;1.10;;;20.60;53.30;;;;;;6271466;28;20386;-68
2022/10/13 04:24:33;;;;;;;1.40;1.07;;;20.60;53.30;;;;;;6270939;28;20029;-68
2022/10/13 04:27:37;;;;;;;1.05;0.80;;;20.70;53.40;;;;;;6270720;28;20036;-68
2022/10/13 04:30:38;;;;;;;1.48;0.93;;;20.70;53.40;;;;;;6270826;28;20017;-68
2022/10/13 04:33:38;;;;;;;1.48;1.00;;;20.70;53.40;;;;;;6270753;28;20029;-68
2022/10/13 04:36:39;;;;;;;1.35;0.95;;;20.60;53.30;;;;;;6270511;28;20540;-68
2022/10/13 04:39:40;;;;;;;1.40;0.80;;;20.70;53.30;;;;;;6260919;28;20021;-68
2022/10/13 04:42:40;;;;;;;0.95;0.73;;;20.60;53.20;;;;;;6245741;28;20112;-68
2022/10/13 04:45:41;;;;;;;1.05;0.80;;;20.60;53.20;;;;;;6263101;28;20021;-68
2022/10/13 04:48:42;;;;;;;0.73;0.57;;;20.60;53.20;;;;;;6269847;28;20077;-68
2022/10/13 04:51:43;;;;;;;1.42;0.95;;;20.60;53.20;;;;;;6270331;28;20115;-68
2022/10/13 04:54:44;;;;;;;1.75;1.00;;;20.60;53.20;;;;;;6270468;28;20048;-68
2022/10/13 04:57:45;;;;;;;1.40;0.93;;;20.70;53.30;;;;;;6270209;28;20055;-68
2022/10/13 05:00:46;;;;;;;2.03;1.05;;;20.70;53.30;;;;;;6269801;28;20078;-68
2022/10/13 05:03:49;;;;;;;1.33;1.10;;;20.60;53.20;;;;;;6245199;28;20068;-68
2022/10/13 05:06:50;;;;;;;1.40;0.82;;;20.70;53.30;;;;;;6245105;28;20018;-68
2022/10/13 05:09:51;;;;;;;1.42;0.77;;;20.60;53.20;;;;;;6251586;28;20141;-68
2022/10/13 05:12:52;;;;;;;1.95;0.82;;;20.70;53.30;;;;;;6269906;28;20029;-68
2022/10/13 05:15:53;;;;;;;2.10;0.98;;;20.60;53.20;;;;;;6260046;28;20033;-68
2022/10/13 05:18:54;;;;;;;1.60;1.08;;;20.60;53.20;;;;;;6244848;28;20036;-68
2022/10/13 05:21:55;;;;;;;1.58;0.80;;;20.70;53.30;;;;;;6268063;28;20025;-68
2022/10/13 05:24:55;;;;;;;0.90;0.80;;;20.70;53.30;;;;;;6269449;28;20021;-68
2022/10/13 05:27:56;;;;;;;0.90;0.80;;;20.60;53.10;;;;;;6269588;28;20481;-68
2022/10/13 05:31:06;;;;;;;1.75;0.80;;;20.60;53.20;;;;;;6268502;28;20394;-68
2022/10/13 05:34:07;;;;;;;0.88;0.70;;;20.70;53.30;;;;;;6269121;28;20025;-68
2022/10/13 05:37:07;;;;;;;1.90;0.80;;;20.60;53.10;;;;;;6268590;28;20027;-69
2022/10/13 05:40:09;;;;;;;1.10;0.88;;;20.70;53.20;;;;;;6269274;28;20107;-68
2022/10/13 05:43:09;;;;;;;0.95;0.73;;;20.60;53.10;;;;;;6262495;28;20021;-69
2022/10/13 05:46:10;;;;;;;1.52;0.82;;;20.70;53.20;;;;;;6258985;28;20017;-69
2022/10/13 05:49:11;;;;;;;1.38;0.88;;;20.60;53.10;;;;;;6255083;28;20053;-69
2022/10/13 05:52:12;;;;;;;4.18;0.80;;;20.70;53.20;;;;;;6243329;28;20143;-69
2022/10/13 05:55:16;;;;;;;1.77;1.10;;;20.60;53.30;;;;;;6246995;28;20070;-69
2022/10/13 05:58:17;;;;;;;3.38;1.08;;;20.60;53.40;;;;;;6267715;28;20025;-69
2022/10/13 06:01:22;;;;;;;4.72;1.20;;;20.60;53.50;;;;;;6257703;28;20133;-69
2022/10/13 06:04:29;;;;;;;4.00;1.48;;;20.60;53.70;;;;;;6265920;28;20371;-68
2022/10/13 06:07:30;;;;;;;1.88;1.00;;;20.60;53.70;;;;;;6269292;28;20086;-68
2022/10/13 06:10:32;;;;;;;2.97;1.30;;;20.60;53.70;;;;;;6250075;28;20024;-69
2022/10/13 06:13:32;;;;;;;2.13;1.17;;;20.60;53.70;;;;;;6269295;28;20033;-68
2022/10/13 06:16:35;;;;;;;2.10;1.17;;;20.60;53.70;;;;;;6253735;28;20040;-69
2022/10/13 06:19:36;;;;;;;1.48;0.90;;;20.60;53.60;;;;;;6268110;28;20096;-69
2022/10/13 06:22:37;;;;;;;1.67;0.90;;;20.60;53.60;;;;;;6243969;28;20499;-69
2022/10/13 06:25:46;;;;;;;1.95;0.90;;;20.60;53.60;;;;;;6247680;28;20036;-69
2022/10/13 06:28:47;;;;;;;1.50;1.08;;;20.60;53.60;;;;;;6256200;28;20028;-69
2022/10/13 06:31:47;;;;;;;1.50;1.05;;;20.60;53.70;;;;;;6271181;28;20032;-68
2022/10/13 06:34:48;;;;;;;2.08;1.10;;;20.60;53.70;;;;;;6290895;28;20085;-69
2022/10/13 06:37:49;;;;;;;1.25;0.93;;;20.60;53.70;;;;;;6266839;28;20044;-69
2022/10/13 06:40:50;;;;;;;1.30;0.90;;;20.60;53.70;;;;;;6266443;28;20120;-69
2022/10/13 06:43:50;;;;;;;0.93;0.75;;;20.60;53.80;;;;;;6267067;28;20025;-69
2022/10/13 06:46:51;;;;;;;2.15;1.30;;;20.60;53.80;;;;;;6266269;28;20478;-69
2022/10/13 06:49:52;;;;;;;1.70;0.95;;;20.60;54.00;;;;;;6258774;28;20041;-69
2022/10/13 06:52:55;;;;;;;1.92;1.02;;;20.60;53.90;;;;;;6260147;28;20588;-69
2022/10/13 06:56:00;;;;;;;1.70;1.00;;;20.60;53.90;;;;;;6266490;28;20021;-68
2022/10/13 06:59:01;;;;;;;1.92;1.10;;;20.60;53.90;;;;;;6243711;28;20055;-68
2022/10/13 07:02:02;;;;;;;2.55;1.15;;;20.60;54.00;;;;;;6267363;28;20557;-70
2022/10/13 07:05:03;;;;;;;2.63;1.10;;;20.60;54.10;;;;;;6266706;28;20584;-68
2022/10/13 07:08:04;;;;;;;1.55;1.00;;;20.60;54.10;;;;;;6268223;28;20060;-69
2022/10/13 07:11:11;;;;;;;1.85;1.23;;;20.60;54.00;;;;;;6267738;28;20021;-69
2022/10/13 07:14:12;;;;;;;2.08;1.00;;;20.60;54.00;;;;;;6268081;28;20108;-69
2022/10/13 07:17:13;;;;;;;1.15;0.80;;;20.60;54.10;;;;;;6266331;28;20409;-69
2022/10/13 07:20:14;;;;;;;1.15;0.80;;;20.60;54.10;;;;;;6242796;28;20040;-69
2022/10/13 07:23:15;;;;;;;1.70;1.17;;;20.60;54.00;;;;;;6254812;28;20703;-68
2022/10/13 07:26:15;;;;;;;2.65;1.33;;;20.60;54.10;;;;;;6292568;28;20032;-68
2022/10/13 07:29:16;;;;;;;2.30;1.33;;;20.60;54.10;;;;;;6269025;28;20031;-69
2022/10/13 07:32:17;;;;;;;2.47;1.13;;;20.60;54.10;;;;;;6261291;28;20025;-69
2022/10/13 07:35:18;;;;;;;2.80;1.20;;;20.60;54.10;;;;;;6243325;28;20029;-69
2022/10/13 07:38:19;;;;;;;3.67;1.10;;;20.60;54.20;;;;;;6242336;28;20093;-69
2022/10/13 07:41:20;;;;;;;4.05;0.95;;;20.60;54.20;;;;;;6242429;28;20029;-68
2022/10/13 07:44:20;;;;;;;2.20;1.38;;;20.60;54.20;;;;;;6264085;28;20478;-68
2022/10/13 07:47:21;;;;;;;4.57;1.30;;;20.50;54.20;;;;;;6249918;28;20111;-68
2022/10/13 07:50:22;;;;;;;5.15;1.35;;;20.50;54.30;;;;;;6265968;28;20129;-68
2022/10/13 07:53:23;;;;;;;5.43;1.30;;;20.50;54.40;;;;;;6257332;28;20072;-68
2022/10/13 07:56:24;;;;;;;5.03;1.10;;;20.50;54.40;;;;;;6242419;28;20042;-70
2022/10/13 07:59:24;;;;;;;2.28;1.25;;;20.50;54.50;;;;;;6242218;28;20080;-69
2022/10/13 08:02:25;;;;;;;2.42;1.20;;;20.50;54.50;;;;;;6246502;28;20564;-68
2022/10/13 08:05:26;;;;;;;3.17;1.15;;;20.50;54.50;;;;;;6242695;28;20030;-69
2022/10/13 08:08:27;;;;;;;4.13;1.13;;;20.50;54.60;;;;;;6242983;28;20021;-69
2022/10/13 08:11:28;;;;;;;2.28;1.40;;;20.50;54.70;;;;;;6241369;28;20116;-69
2022/10/13 08:14:29;;;;;;;6.32;2.40;;;20.50;54.80;;;;;;6244672;28;20026;-69
2022/10/13 08:17:30;;;;;;;6.35;2.38;;;20.50;54.80;;;;;;6266663;28;20025;-69
2022/10/13 08:20:31;;;;;;;9.02;2.33;;;20.50;54.70;;;;;;6265897;28;20397;-69
2022/10/13 08:23:32;;;;;;;7.63;2.90;;;20.40;54.60;;;;;;6254990;28;20030;-69
2022/10/13 08:26:32;;;;;;;6.93;2.67;;;20.40;54.50;;;;;;6281842;28;20027;-69
2022/10/13 08:29:33;;;;;;;7.38;3.60;;;20.40;54.30;;;;;;6271286;28;20096;-69
2022/10/13 08:32:34;;;;;;;6.93;3.47;;;20.40;54.20;;;;;;6267164;28;20025;-69
2022/10/13 08:35:34;;;;;;;9.13;3.22;;;20.40;54.20;;;;;;6242155;28;20052;-69
2022/10/13 08:38:35;;;;;;;7.90;3.25;;;20.40;54.10;;;;;;6242208;28;20025;-69
2022/10/13 08:41:39;;;;;;;6.72;3.80;;;20.40;54.20;;;;;;6242309;28;20052;-69
2022/10/13 08:44:50;;;;;;;7.07;3.20;;;20.40;54.30;;;;;;6249034;28;20416;-69
2022/10/13 08:48:19;;;;;;;7.43;3.30;;;20.40;54.30;;;;;;6242128;28;20512;-69
2022/10/13 08:51:20;;;;;;;4.68;2.92;;;20.40;54.30;;;;;;6233322;28;20056;-69
2022/10/13 08:54:24;;;;;;;7.45;3.30;;;20.40;54.40;;;;;;6253551;28;20051;-71
2022/10/13 08:57:25;;;;;;;5.27;3.07;;;20.40;54.40;;;;;;6265443;28;20120;-68
2022/10/13 09:00:28;;;;;;;6.28;3.10;;;20.40;54.40;;;;;;6245802;28;20082;-69
2022/10/13 09:03:29;;;;;;;8.20;3.40;;;20.40;54.40;;;;;;6243692;28;20376;-68
2022/10/13 09:06:35;;;;;;;5.65;3.03;;;20.40;54.60;;;;;;6244259;28;20136;-69
2022/10/13 09:09:37;;;;;;;6.38;2.70;;;20.40;54.40;;;;;;6248006;28;20039;-69
2022/10/13 09:12:37;;;;;;;9.43;3.75;;;20.40;54.60;;;;;;6269900;28;20025;-69
2022/10/13 09:15:46;;;;;;;10.73;3.30;;;20.40;54.40;;;;;;6257440;28;20391;-69
2022/10/13 09:18:47;;;;;;;5.65;2.90;;;20.40;54.50;;;;;;6252163;28;20058;-69
2022/10/13 09:21:49;;;;;;;6.22;2.80;;;20.40;54.50;;;;;;6254661;28;20029;-69
2022/10/13 09:25:05;;;;;;;6.07;3.40;;;20.40;54.70;;;;;;6258137;28;20088;-69
2022/10/13 09:28:19;;;;;;;6.22;2.72;;;20.40;54.60;;;;;;6270698;28;20108;-69
2022/10/13 09:31:27;;;;;;;4.50;2.80;;;20.40;54.70;;;;;;6246909;28;20427;-69
2022/10/13 09:34:29;;;;;;;4.15;2.75;;;20.40;54.80;;;;;;6255501;28;20033;-69
2022/10/13 09:37:29;;;;;;;5.65;2.88;;;20.40;54.60;;;;;;6269580;28;20055;-69
2022/10/13 09:40:31;;;;;;;5.45;2.60;;;20.40;54.70;;;;;;6264263;28;20806;-69
2022/10/13 09:43:33;;;;;;;6.88;3.10;;;20.40;54.70;;;;;;6270289;28;20033;-69
2022/10/13 09:46:51;;;;;;;5.32;2.90;;;20.40;54.70;;;;;;6260202;28;20040;-69
2022/10/13 09:50:14;;;;;;;5.60;2.55;;;20.40;54.70;;;;;;6259923;28;20049;-69
2022/10/13 09:53:32;;;;;;;6.00;2.70;;;20.40;54.80;;;;;;6270049;28;20540;-69
2022/10/13 09:56:41;;;;;;;4.50;2.80;;;20.40;54.70;;;;;;6270324;28;20017;-69
2022/10/13 09:59:50;;;;;;;6.97;2.70;;;20.40;54.80;;;;;;6253404;28;20550;-69
2022/10/13 10:03:10;;;;;;;3.83;2.20;;;20.40;54.80;;;;;;6269695;28;20025;-69
2022/10/13 10:06:14;;;;;;;6.07;2.78;;;20.40;54.70;;;;;;6253756;28;20033;-69
2022/10/13 10:09:34;;;;;;;5.13;2.90;;;20.40;54.80;;;;;;6245374;28;20022;-69
2022/10/13 10:12:40;;;;;;;4.90;2.67;;;20.40;54.80;;;;;;6268810;28;20033;-69
2022/10/13 10:15:40;;;;;;;6.03;2.70;;;20.40;54.90;;;;;;6256078;28;20025;-69
2022/10/13 10:19:09;;;;;;;3.90;2.70;;;20.40;54.90;;;;;;6262171;28;20021;-69
2022/10/13 10:22:29;;;;;;;6.75;2.75;;;20.40;54.90;;;;;;6245787;28;20032;-68
2022/10/13 10:25:52;;;;;;;4.45;2.90;;;20.40;54.90;;;;;;6268643;28;20025;-69
2022/10/13 10:29:00;;;;;;;6.15;3.17;;;20.40;55.00;;;;;;6268866;28;20257;-68
2022/10/13 10:32:24;;;;;;;4.78;2.60;;;20.40;54.80;;;;;;6268986;28;20103;-69
2022/10/13 10:35:59;;;;;;;5.57;2.80;;;20.40;54.90;;;;;;6267977;28;20104;-69
2022/10/13 10:39:29;;;;;;;3.85;2.13;;;20.40;55.00;;;;;;6262001;28;20450;-69
2022/10/13 10:42:53;;;;;;;4.03;2.60;;;20.40;54.90;;;;;;6260615;28;20115;-69
2022/10/13 10:45:57;;;;;;;7.70;2.60;;;20.40;55.00;;;;;;6237110;28;20051;-74
2022/10/13 10:49:01;;;;;;;4.53;2.58;;;20.40;54.90;;;;;;6268094;28;20041;-69
2022/10/13 10:52:07;;;;;;;3.47;2.10;;;20.40;54.90;;;;;;6249718;28;20113;-69
2022/10/13 10:55:14;;;;;;;4.68;2.40;;;20.40;55.00;;;;;;6244078;28;20395;-71
2022/10/13 10:59:06;;;;;;;3.55;2.40;;;20.40;55.10;;;;;;6244192;28;20071;-69
2022/10/13 11:02:07;;;;;;;5.30;2.92;;;20.40;55.10;;;;;;6241721;28;20075;-68
2022/10/13 11:05:07;;;;;;;5.20;3.00;;;20.40;55.10;;;;;;6243174;28;20033;-68
2022/10/13 11:08:36;;;;;;;5.03;3.10;;;20.40;55.00;;;;;;6241964;28;20028;-69
2022/10/13 11:11:39;;;;;;;5.18;3.08;;;20.40;55.00;;;;;;6242840;28;20056;-69
2022/10/13 11:14:42;;;;;;;5.03;3.10;;;20.40;55.00;;;;;;6243389;28;20032;-69
2022/10/13 11:17:42;;;;;;;4.28;2.65;;;20.40;55.00;;;;;;6252346;28;20083;-68
2022/10/13 11:20:55;;;;;;;6.45;3.30;;;20.40;55.00;;;;;;6242989;28;20108;-68
2022/10/13 11:23:55;;;;;;;8.70;3.13;;;20.30;54.90;;;;;;6278515;28;20052;-69
2022/10/13 11:27:39;;;;;;;5.00;2.80;;;20.40;55.00;;;;;;6280848;28;20028;-69
2022/10/13 11:30:48;;;;;;;5.15;2.90;;;20.40;55.00;;;;;;6258723;28;20033;-68
2022/10/13 11:33:49;;;;;;;4.53;2.90;;;20.40;55.10;;;;;;6267964;28;20021;-68
2022/10/13 11:36:59;;;;;;;5.88;2.80;;;20.30;55.00;;;;;;6257852;28;20594;-69
2022/10/13 11:40:22;;;;;;;4.72;2.70;;;20.40;55.10;;;;;;6243313;28;20156;-69
2022/10/13 11:43:53;;;;;;;6.03;3.22;;;20.40;55.10;;;;;;6241354;28;20041;-68
2022/10/13 11:47:15;;;;;;;5.55;2.88;;;20.30;55.10;;;;;;6245664;28;20032;-69
2022/10/13 11:50:27;;;;;;;7.45;3.55;;;20.40;55.20;;;;;;6261985;28;20128;-69
2022/10/13 11:53:47;;;;;;;5.22;2.95;;;20.40;55.20;;;;;;6267189;28;20017;-68
2022/10/13 11:56:50;;;;;;;6.47;2.88;;;20.40;55.80;;;;;;6266754;28;20029;-69
2022/10/13 11:59:54;;;;;;;7.50;2.95;;;20.40;55.10;;;;;;6260350;28;20415;-68
2022/10/13 12:02:55;;;;;;;4.78;3.22;;;20.40;55.10;;;;;;6242611;28;20025;-69
2022/10/13 12:06:00;;;;;;;5.03;2.83;;;20.40;55.10;;;;;;6264264;28;20032;-69
2022/10/13 12:09:18;;;;;;;5.47;3.38;;;20.40;55.10;;;;;;6266384;28;20389;-69
2022/10/13 12:12:21;;;;;;;6.90;2.92;;;20.40;55.10;;;;;;6244845;28;20109;-69
2022/10/13 12:15:42;;;;;;;5.40;3.17;;;20.40;55.10;;;;;;6242326;28;20399;-69
2022/10/13 12:18:43;;;;;;;5.00;3.00;;;20.40;55.20;;;;;;6262724;28;20036;-69
2022/10/13 12:21:49;;;;;;;5.30;2.90;;;20.40;55.20;;;;;;6266679;28;20060;-68
2022/10/13 12:25:05;;;;;;;4.93;2.47;;;20.40;55.10;;;;;;6275527;28;20025;-69
2022/10/13 12:28:17;;;;;;;6.78;2.95;;;20.40;55.20;;;;;;6263608;28;20025;-68
2022/10/13 12:31:22;;;;;;;4.70;2.80;;;20.40;55.20;;;;;;6244514;28;20029;-68
2022/10/13 12:34:33;;;;;;;4.15;2.72;;;20.40;55.30;;;;;;6267237;28;20036;-68
2022/10/13 12:37:36;;;;;;;4.75;2.70;;;20.40;55.20;;;;;;6266696;28;20029;-69
2022/10/13 12:40:38;;;;;;;2.88;2.50;;;20.40;55.30;;;;;;6269532;28;20045;-69
2022/10/13 12:43:39;;;;;;;4.70;2.83;;;20.40;55.30;;;;;;6262844;28;20028;-69
2022/10/13 12:46:45;;;;;;;6.68;3.00;;;20.40;55.30;;;;;;6271473;28;20022;-69
2022/10/13 12:49:46;;;;;;;5.45;2.75;;;20.40;55.30;;;;;;6247324;28;20061;-69
2022/10/13 12:52:47;;;;;;;3.95;2.75;;;20.40;55.30;;;;;;6252181;28;20021;-69
2022/10/13 12:55:57;;;;;;;4.38;2.47;;;20.40;55.30;;;;;;6255530;28;20481;-70
2022/10/13 12:58:59;;;;;;;5.72;2.80;;;20.30;55.30;;;;;;6259714;28;20025;-69
2022/10/13 13:02:02;;;;;;;4.18;2.80;;;20.40;55.40;;;;;;6271841;28;20086;-70
2022/10/13 13:05:23;;;;;;;3.83;2.50;;;20.30;55.30;;;;;;6271140;28;20729;-71
2022/10/13 13:08:26;;;;;;;6.32;2.15;;;20.30;55.30;;;;;;6271240;28;20032;-71
2022/10/13 13:11:35;;;;;;;3.03;2.40;;;20.30;55.30;;;;;;6270404;28;20358;-71
2022/10/13 13:14:42;;;;;;;4.35;2.63;;;20.30;55.30;;;;;;6252491;28;20029;-71
2022/10/13 13:17:44;;;;;;;7.65;2.30;;;20.40;55.40;;;;;;6248575;28;20022;-71
2022/10/13 13:20:45;;;;;;;5.70;2.38;;;20.30;55.30;;;;;;6271422;28;20021;-71
2022/10/13 13:23:47;;;;;;;7.82;2.58;;;20.30;55.30;;;;;;6259918;28;20026;-70
2022/10/13 13:26:48;;;;;;;6.22;2.70;;;20.30;55.30;;;;;;6246381;28;20036;-70
2022/10/13 13:29:49;;;;;;;7.85;3.20;;;20.30;55.20;;;;;;6265067;28;20617;-71
2022/10/13 13:32:50;;;;;;;5.95;3.00;;;20.30;55.30;;;;;;6262401;28;20371;-71
2022/10/13 13:35:51;;;;;;;5.80;2.97;;;20.30;55.20;;;;;;6259994;28;20036;-70
2022/10/13 13:38:53;;;;;;;5.63;2.75;;;20.30;55.20;;;;;;6255797;28;20659;-70
2022/10/13 13:41:54;;;;;;;4.82;2.58;;;20.30;55.20;;;;;;6244974;28;20029;-72
2022/10/13 13:44:55;;;;;;;9.70;3.17;;;20.30;55.20;;;;;;6248331;28;20515;-72
2022/10/13 13:47:56;;;;;;;5.50;3.00;;;20.30;55.10;;;;;;6246071;28;20022;-72
2022/10/13 13:50:57;;;;;;;6.05;2.85;;;20.30;55.00;;;;;;6253737;28;20028;-72
2022/10/13 13:53:57;;;;;;;5.95;3.10;;;20.30;55.00;;;;;;6270727;28;20091;-72
2022/10/13 13:56:58;;;;;;;6.60;3.30;;;20.30;55.00;;;;;;6270727;28;20029;-72
2022/10/13 13:59:59;;;;;;;6.78;3.20;;;20.30;55.00;;;;;;6269664;28;20021;-71
2022/10/13 14:02:59;;;;;;;6.97;2.75;;;20.30;55.00;;;;;;6270651;28;20048;-72
2022/10/13 14:06:00;;;;;;;5.85;2.90;;;20.30;55.10;;;;;;6270521;28;20025;-71
2022/10/13 14:09:03;;;;;;;7.03;2.78;;;20.30;55.00;;;;;;6270671;28;20413;-72
2022/10/13 14:12:04;;;;;;;4.85;2.47;;;20.30;55.00;;;;;;6270544;28;20025;-72
2022/10/13 14:15:06;;;;;;;5.38;3.03;;;20.30;55.10;;;;;;6270478;28;20033;-71
2022/10/13 14:18:07;;;;;;;4.95;2.80;;;20.30;55.10;;;;;;6269325;28;20056;-72
2022/10/13 14:21:07;;;;;;;6.97;2.58;;;20.30;55.10;;;;;;6270479;28;20025;-72
2022/10/13 14:24:09;;;;;;;5.28;2.85;;;20.30;55.10;;;;;;6269988;28;20029;-71
2022/10/13 14:27:10;;;;;;;5.35;2.70;;;20.30;55.10;;;;;;6268836;28;20078;-72
2022/10/13 14:30:11;;;;;;;4.30;2.58;;;20.30;55.10;;;;;;6270037;28;20409;-71
2022/10/13 14:33:12;;;;;;;3.65;2.25;;;20.30;55.10;;;;;;6270072;28;20021;-72
2022/10/13 14:36:13;;;;;;;4.47;2.75;;;20.30;55.10;;;;;;6269937;28;20058;-73
2022/10/13 14:39:14;;;;;;;4.40;2.67;;;20.30;55.10;;;;;;6270246;28;20037;-72
2022/10/13 14:42:14;;;;;;;4.93;2.47;;;20.30;55.10;;;;;;6268827;28;20553;-72
2022/10/13 14:45:15;;;;;;;5.97;3.20;;;20.30;55.10;;;;;;6261362;28;20473;-72
2022/10/13 14:48:16;;;;;;;5.13;2.58;;;20.30;55.10;;;;;;6244022;28;20793;-71
2022/10/13 14:51:17;;;;;;;4.20;2.22;;;20.30;55.20;;;;;;6266520;28;20553;-72
2022/10/13 14:54:17;;;;;;;3.83;2.50;;;20.30;55.20;;;;;;6269670;28;20032;-71
2022/10/13 14:57:18;;;;;;;4.28;2.53;;;20.30;55.20;;;;;;6269856;28;20037;-72
2022/10/13 15:00:19;;;;;;;5.88;2.63;;;20.30;55.20;;;;;;6268277;28;20135;-72
2022/10/13 15:03:20;;;;;;;4.78;2.45;;;20.30;55.20;;;;;;6269159;28;20021;-72
2022/10/13 15:06:23;;;;;;;4.32;2.50;;;20.30;55.20;;;;;;6268149;28;20029;-72
2022/10/13 15:09:24;;;;;;;5.72;2.35;;;20.30;55.20;;;;;;6269960;28;20502;-72
2022/10/13 15:12:25;;;;;;;3.47;2.28;;;20.30;55.20;;;;;;6268530;28;20036;-72
2022/10/13 15:15:26;;;;;;;4.32;2.45;;;20.30;55.20;;;;;;6269385;28;20065;-72
2022/10/13 15:18:27;;;;;;;3.75;2.58;;;20.30;55.20;;;;;;6268314;28;20457;-71
2022/10/13 15:21:28;;;;;;;4.93;2.22;;;20.30;55.30;;;;;;6268255;28;20029;-72
2022/10/13 15:24:28;;;;;;;4.53;2.55;;;20.30;55.30;;;;;;6268373;28;20032;-71
2022/10/13 15:27:29;;;;;;;2.63;1.70;;;20.30;55.30;;;;;;6267544;28;20360;-71
2022/10/13 15:30:32;;;;;;;2.65;1.80;;;20.30;55.30;;;;;;6268867;28;20478;-72
2022/10/13 15:33:33;;;;;;;3.13;2.20;;;20.30;55.30;;;;;;6268594;28;20394;-72
2022/10/13 15:36:34;;;;;;;3.72;2.15;;;20.30;55.30;;;;;;6267160;28;20048;-72
2022/10/13 15:39:35;;;;;;;2.60;2.05;;;20.30;55.40;;;;;;6267381;28;20039;-71
2022/10/13 15:42:36;;;;;;;3.58;2.30;;;20.30;55.40;;;;;;6268492;28;20025;-72
2022/10/13 15:45:36;;;;;;;3.92;2.42;;;20.30;55.40;;;;;;6268170;28;20035;-72
2022/10/13 15:48:38;;;;;;;2.75;1.80;;;20.30;55.40;;;;;;6268132;28;20045;-73
2022/10/13 15:51:38;;;;;;;2.83;1.90;;;20.30;55.30;;;;;;6268268;28;20398;-72
2022/10/13 15:54:39;;;;;;;3.38;2.10;;;20.30;55.30;;;;;;6268169;28;20025;-72
2022/10/13 15:57:40;;;;;;;4.00;1.90;;;20.30;55.30;;;;;;6268383;28;20028;-71
2022/10/13 16:00:42;;;;;;;2.40;1.85;;;20.30;55.30;;;;;;6268502;28;20131;-71
2022/10/13 16:03:43;;;;;;;3.03;2.00;;;20.30;55.30;;;;;;6266867;28;20033;-72